createdAt,value
2023-09-21T00:01:14.449Z,61.26
2023-09-21T00:03:42.025Z,61.07
2023-09-21T00:06:10.576Z,61.14
2023-09-21T00:08:37.946Z,61.46
2023-09-21T00:11:08.440Z,61.51
2023-09-21T00:13:40.490Z,61.55
2023-09-21T00:16:12.832Z,61.83
2023-09-21T00:18:44.811Z,61.86
2023-09-21T00:21:14.262Z,62.14
2023-09-21T00:23:42.596Z,62.10
2023-09-21T00:26:10.667Z,62.16
2023-09-21T00:28:38.310Z,62.32
2023-09-21T00:31:06.146Z,62.44
2023-09-21T00:33:34.364Z,62.49
2023-09-21T00:36:10.918Z,62.43
2023-09-21T00:38:38.809Z,62.39
2023-09-21T00:41:06.229Z,62.51
2023-09-21T00:43:34.226Z,62.52
2023-09-21T00:46:02.903Z,63.07
2023-09-21T00:48:40.857Z,63.24
2023-09-21T00:51:09.143Z,63.04
2023-09-21T00:53:37.537Z,63.38
2023-09-21T00:56:10.823Z,63.52
2023-09-21T00:58:38.364Z,63.76
2023-09-21T01:01:07.026Z,63.84
2023-09-21T01:03:39.141Z,63.85
2023-09-21T01:06:09.864Z,63.99
2023-09-21T01:08:37.094Z,64.38
2023-09-21T01:11:09.077Z,64.48
2023-09-21T01:13:37.428Z,64.55
2023-09-21T01:16:06.256Z,65.06
2023-09-21T01:18:34.396Z,65.07
2023-09-21T01:21:05.659Z,65.48
2023-09-21T01:23:36.537Z,65.45
2023-09-21T01:26:04.032Z,65.63
2023-09-21T01:28:31.757Z,65.60
2023-09-21T01:30:59.037Z,66.08
2023-09-21T01:33:26.602Z,66.12
2023-09-21T01:35:53.854Z,66.40
2023-09-21T01:38:21.359Z,66.39
2023-09-21T01:40:48.626Z,66.62
2023-09-21T01:43:18.124Z,66.93
2023-09-21T01:45:49.969Z,66.90
2023-09-21T01:48:21.668Z,66.83
2023-09-21T01:50:52.078Z,66.78
2023-09-21T01:53:21.401Z,67.09
2023-09-21T01:55:49.333Z,67.22
2023-09-21T01:58:17.708Z,67.51
2023-09-21T02:00:49.764Z,67.42
2023-09-21T02:03:19.389Z,67.56
2023-09-21T02:05:50.006Z,67.65
2023-09-21T02:08:18.402Z,67.69
2023-09-21T02:10:46.227Z,67.73
2023-09-21T02:13:13.596Z,67.58
2023-09-21T02:15:41.046Z,67.68
2023-09-21T02:18:10.927Z,68.06
2023-09-21T02:20:43.256Z,68.13
2023-09-21T02:23:10.498Z,68.41
2023-09-21T02:25:40.400Z,68.43
2023-09-21T02:28:12.995Z,68.36
2023-09-21T02:30:41.495Z,68.40
2023-09-21T02:33:09.419Z,68.65
2023-09-21T02:35:42.808Z,68.64
2023-09-21T02:38:10.990Z,68.85
2023-09-21T02:40:39.510Z,68.93
2023-09-21T02:43:09.321Z,69.06
2023-09-21T02:45:37.853Z,68.98
2023-09-21T02:48:06.301Z,69.01
2023-09-21T02:50:33.688Z,68.98
2023-09-21T02:53:08.186Z,69.02
2023-09-21T02:55:36.233Z,69.42
2023-09-21T02:58:11.565Z,69.10
2023-09-21T03:00:46.821Z,68.97
2023-09-21T03:03:18.660Z,68.98
2023-09-21T03:05:47.815Z,68.98
2023-09-21T03:08:16.489Z,68.99
2023-09-21T03:10:49.211Z,68.93
2023-09-21T03:13:19.793Z,69.12
2023-09-21T03:15:51.908Z,69.47
2023-09-21T03:18:22.606Z,69.73
2023-09-21T03:20:53.960Z,69.95
2023-09-21T03:23:23.134Z,70.13
2023-09-21T03:25:55.338Z,70.06
2023-09-21T03:28:26.200Z,70.10
2023-09-21T03:30:55.643Z,70.34
2023-09-21T03:33:23.197Z,70.49
2023-09-21T03:35:50.898Z,70.59
2023-09-21T03:38:21.339Z,70.52
2023-09-21T03:40:51.869Z,70.33
2023-09-21T03:43:20.036Z,70.62
2023-09-21T03:45:47.832Z,70.73
2023-09-21T03:48:15.439Z,70.79
2023-09-21T03:50:44.031Z,71.02
2023-09-21T03:53:13.421Z,71.30
2023-09-21T03:55:41.361Z,71.48
2023-09-21T03:58:09.435Z,71.58
2023-09-21T04:00:38.922Z,71.65
2023-09-21T04:03:10.598Z,71.55
2023-09-21T04:05:45.632Z,71.98
2023-09-21T04:08:13.012Z,72.21
2023-09-21T04:10:41.755Z,72.22
2023-09-21T04:13:09.055Z,72.54
2023-09-21T04:15:36.357Z,72.53
2023-09-21T04:18:04.345Z,72.60
2023-09-21T04:20:36.363Z,72.77
2023-09-21T04:23:04.854Z,72.86
2023-09-21T04:25:34.092Z,72.74
2023-09-21T04:28:01.722Z,72.99
2023-09-21T04:30:29.502Z,72.92
2023-09-21T04:32:58.544Z,73.19
2023-09-21T04:35:28.595Z,73.30
2023-09-21T04:37:57.392Z,73.63
2023-09-21T04:40:27.694Z,73.76
2023-09-21T04:42:58.293Z,74.13
2023-09-21T04:45:28.282Z,74.27
2023-09-21T04:48:04.895Z,74.27
2023-09-21T04:50:36.356Z,74.35
2023-09-21T04:53:04.936Z,74.46
2023-09-21T04:55:33.355Z,74.53
2023-09-21T04:58:01.492Z,74.42
2023-09-21T05:00:30.921Z,74.75
2023-09-21T05:02:58.741Z,74.91
2023-09-21T05:05:28.515Z,75.02
2023-09-21T05:07:56.240Z,74.84
2023-09-21T05:10:23.489Z,74.70
2023-09-21T05:12:53.577Z,74.67
2023-09-21T05:15:21.076Z,74.50
2023-09-21T05:17:48.388Z,74.69
2023-09-21T05:20:16.447Z,74.79
2023-09-21T05:22:44.397Z,74.82
2023-09-21T05:25:11.959Z,74.47
2023-09-21T05:27:40.133Z,74.52
2023-09-21T05:30:10.511Z,74.49
2023-09-21T05:32:38.947Z,74.62
2023-09-21T05:35:07.783Z,74.52
2023-09-21T05:37:38.171Z,74.51
2023-09-21T05:40:07.859Z,74.13
2023-09-21T05:42:36.490Z,73.74
2023-09-21T05:45:04.584Z,73.30
2023-09-21T05:47:36.627Z,73.41
2023-09-21T05:50:06.932Z,73.67
2023-09-21T05:52:36.557Z,73.59
2023-09-21T05:55:04.540Z,73.23
2023-09-21T05:57:49.207Z,72.71
2023-09-21T06:00:19.156Z,72.57
2023-09-21T06:02:46.621Z,71.69
2023-09-21T06:05:14.065Z,71.67
2023-09-21T06:07:41.327Z,71.24
2023-09-21T06:10:08.928Z,71.12
2023-09-21T06:12:36.200Z,71.30
2023-09-21T06:15:07.372Z,71.14
2023-09-21T06:17:35.650Z,71.75
2023-09-21T06:20:04.578Z,71.11
2023-09-21T06:22:33.052Z,71.03
2023-09-21T06:25:03.647Z,70.79
2023-09-21T06:27:31.985Z,70.16
2023-09-21T06:29:59.846Z,69.86
2023-09-21T06:32:27.401Z,69.29
2023-09-21T06:34:54.918Z,69.22
2023-09-21T06:37:23.616Z,69.64
2023-09-21T06:39:50.823Z,69.91
2023-09-21T06:42:18.173Z,69.39
2023-09-21T06:44:45.495Z,69.36
2023-09-21T06:47:14.339Z,68.77
2023-09-21T06:49:41.691Z,68.55
2023-09-21T06:52:09.215Z,68.46
2023-09-21T06:54:39.636Z,67.80
2023-09-21T06:57:07.699Z,67.88
2023-09-21T06:59:39.976Z,67.38
2023-09-21T07:02:07.906Z,68.05
2023-09-21T07:04:35.968Z,67.94
2023-09-21T07:07:07.415Z,67.63
2023-09-21T07:09:38.751Z,68.02
2023-09-21T07:12:07.563Z,67.35
2023-09-21T07:14:37.393Z,67.21
2023-09-21T07:17:06.794Z,67.51
2023-09-21T07:19:36.383Z,67.48
2023-09-21T07:22:04.398Z,66.79
2023-09-21T07:24:32.494Z,66.71
2023-09-21T07:27:00.148Z,67.18
2023-09-21T07:29:27.924Z,67.32
2023-09-21T07:31:55.543Z,66.74
2023-09-21T07:34:23.009Z,66.53
2023-09-21T07:36:50.778Z,66.70
2023-09-21T07:39:18.572Z,66.19
2023-09-21T07:41:48.292Z,65.67
2023-09-21T07:44:18.080Z,66.12
2023-09-21T07:46:45.722Z,65.45
2023-09-21T07:49:14.825Z,65.09
2023-09-21T07:51:42.289Z,64.78
2023-09-21T07:54:09.592Z,64.51
2023-09-21T07:56:43.050Z,63.42
2023-09-21T07:59:13.299Z,63.92
2023-09-21T08:01:41.916Z,64.17
2023-09-21T08:04:09.356Z,64.53
2023-09-21T08:06:37.982Z,63.58
2023-09-21T08:09:12.521Z,63.37
2023-09-21T08:11:46.729Z,63.54
2023-09-21T08:14:14.753Z,63.52
2023-09-21T08:16:43.031Z,62.04
2023-09-21T08:19:10.716Z,60.96
2023-09-21T08:21:38.389Z,61.60
2023-09-21T08:24:06.087Z,61.52
2023-09-21T08:26:35.229Z,60.19
2023-09-21T08:29:02.866Z,60.78
2023-09-21T08:31:30.535Z,60.18
2023-09-21T08:33:58.915Z,59.94
2023-09-21T08:36:27.423Z,60.50
2023-09-21T08:38:55.259Z,59.73
2023-09-21T08:41:23.093Z,59.24
2023-09-21T08:43:50.386Z,57.41
2023-09-21T08:46:17.955Z,57.93
2023-09-21T08:48:45.819Z,58.32
2023-09-21T08:51:16.494Z,58.92
2023-09-21T08:53:44.098Z,58.35
2023-09-21T08:56:11.466Z,57.81
2023-09-21T08:58:42.025Z,57.62
2023-09-21T09:01:10.247Z,57.20
2023-09-21T09:03:37.881Z,56.67
2023-09-21T09:06:05.936Z,56.54
2023-09-21T09:08:33.711Z,56.27
2023-09-21T09:11:01.386Z,56.17
2023-09-21T09:13:35.269Z,55.51
2023-09-21T09:16:02.802Z,55.58
2023-09-21T09:18:31.678Z,55.67
2023-09-21T09:21:00.627Z,55.12
2023-09-21T09:23:28.040Z,53.75
2023-09-21T09:25:56.546Z,52.91
2023-09-21T09:28:24.181Z,53.16
2023-09-21T09:30:53.588Z,53.64
2023-09-21T09:33:27.117Z,52.80
2023-09-21T09:35:55.173Z,51.57
2023-09-21T09:38:23.279Z,51.87
2023-09-21T09:40:50.828Z,50.98
2023-09-21T09:43:18.328Z,50.99
2023-09-21T09:45:48.067Z,51.33
2023-09-21T09:48:17.758Z,50.84
2023-09-21T09:50:48.349Z,50.50
2023-09-21T09:53:18.725Z,49.89
2023-09-21T09:55:46.270Z,51.24
2023-09-21T09:58:16.603Z,50.70
2023-09-21T10:00:46.555Z,50.91
2023-09-21T10:03:14.477Z,50.19
2023-09-21T10:05:43.382Z,49.00
2023-09-21T10:08:11.694Z,50.06
2023-09-21T10:10:45.901Z,50.34
2023-09-21T10:13:13.329Z,50.49
2023-09-21T10:15:44.793Z,50.35
2023-09-21T10:18:12.279Z,49.74
2023-09-21T10:20:39.963Z,49.04
2023-09-21T10:23:12.865Z,48.17
2023-09-21T10:25:42.878Z,48.17
2023-09-21T10:28:29.016Z,50.14
2023-09-21T10:30:57.564Z,49.93
2023-09-21T10:33:27.103Z,48.21
2023-09-21T10:35:54.764Z,48.87
2023-09-21T10:38:22.124Z,49.08
2023-09-21T10:40:49.425Z,48.94
2023-09-21T10:43:38.646Z,48.86
2023-09-21T10:46:19.242Z,49.50
2023-09-21T10:48:47.534Z,49.59
2023-09-21T10:51:15.467Z,48.61
2023-09-21T10:53:43.072Z,48.28
2023-09-21T10:56:10.285Z,47.86
2023-09-21T10:58:38.011Z,48.01
2023-09-21T11:01:07.307Z,48.51
2023-09-21T11:03:36.731Z,48.54
2023-09-21T11:06:04.577Z,48.90
2023-09-21T11:08:32.828Z,48.12
2023-09-21T11:11:00.039Z,47.96
2023-09-21T11:13:28.374Z,48.12
2023-09-21T11:15:56.424Z,48.44
2023-09-21T11:18:23.753Z,48.01
2023-09-21T11:20:51.384Z,48.13
2023-09-21T11:23:19.766Z,47.06
2023-09-21T11:25:51.363Z,47.08
2023-09-21T11:28:23.982Z,46.77
2023-09-21T11:30:52.541Z,46.39
2023-09-21T11:33:23.365Z,46.92
2023-09-21T11:35:50.764Z,46.04
2023-09-21T11:38:17.965Z,44.39
2023-09-21T11:40:45.310Z,43.82
2023-09-21T11:43:15.677Z,43.65
2023-09-21T11:45:46.865Z,43.75
2023-09-21T11:48:14.929Z,44.97
2023-09-21T11:50:45.479Z,44.03
2023-09-21T11:53:13.691Z,43.90
2023-09-21T11:55:41.864Z,44.06
2023-09-21T11:58:16.883Z,43.54
2023-09-21T12:00:50.865Z,43.36
2023-09-21T12:03:22.304Z,43.84
2023-09-21T12:05:50.164Z,43.07
2023-09-21T12:08:21.112Z,43.48
2023-09-21T12:10:49.446Z,44.74
2023-09-21T12:13:17.705Z,44.14
2023-09-21T12:15:45.008Z,43.47
2023-09-21T12:18:14.574Z,43.28
2023-09-21T12:20:50.989Z,44.55
2023-09-21T12:23:18.947Z,44.10
2023-09-21T12:25:47.754Z,44.08
2023-09-21T12:28:15.506Z,44.07
2023-09-21T12:30:44.053Z,43.68
2023-09-21T12:33:34.919Z,44.55
2023-09-21T12:36:06.327Z,44.59
2023-09-21T12:38:34.787Z,43.45
2023-09-21T12:41:02.656Z,43.46
2023-09-21T12:43:30.482Z,43.55
2023-09-21T12:46:00.260Z,42.86
2023-09-21T12:48:27.924Z,42.93
2023-09-21T12:50:55.362Z,42.89
2023-09-21T12:53:24.188Z,42.68
2023-09-21T12:55:51.509Z,42.87
2023-09-21T12:58:19.074Z,43.25
2023-09-21T13:00:47.208Z,44.19
2023-09-21T13:03:15.224Z,44.20
2023-09-21T13:05:46.299Z,43.81
2023-09-21T13:08:14.574Z,43.76
2023-09-21T13:10:41.909Z,43.44
2023-09-21T13:13:12.932Z,43.06
2023-09-21T13:15:40.896Z,43.07
2023-09-21T13:18:09.748Z,43.30
2023-09-21T13:20:37.156Z,43.44
2023-09-21T13:23:06.449Z,43.83
2023-09-21T13:25:34.092Z,44.10
2023-09-21T13:28:02.043Z,44.03
2023-09-21T13:30:29.561Z,44.58
2023-09-21T13:32:57.030Z,45.35
2023-09-21T13:35:24.569Z,45.46
2023-09-21T13:37:52.004Z,45.15
2023-09-21T13:40:20.098Z,45.06
2023-09-21T13:42:47.988Z,44.89
2023-09-21T13:45:15.627Z,45.27
2023-09-21T13:47:43.358Z,45.91
2023-09-21T13:50:11.025Z,46.12
2023-09-21T13:52:38.808Z,45.98
2023-09-21T13:57:41.628Z,46.27
2023-09-21T14:00:11.589Z,45.88
2023-09-21T14:02:46.056Z,46.66
2023-09-21T14:05:14.292Z,46.57
2023-09-21T14:07:42.476Z,46.92
2023-09-21T14:10:10.645Z,47.13
2023-09-21T14:12:38.451Z,47.37
2023-09-21T14:15:07.040Z,48.15
2023-09-21T14:17:36.794Z,48.24
2023-09-21T14:20:06.302Z,48.06
2023-09-21T14:22:33.691Z,47.94
2023-09-21T14:25:01.309Z,47.85
2023-09-21T14:27:29.073Z,48.38
2023-09-21T14:29:56.424Z,48.43
2023-09-21T14:32:23.956Z,48.67
2023-09-21T14:34:51.923Z,49.05
2023-09-21T14:37:19.317Z,49.60
2023-09-21T14:39:46.640Z,50.30
2023-09-21T14:42:14.362Z,50.62
2023-09-21T14:44:41.672Z,51.14
2023-09-21T14:47:09.078Z,51.31
2023-09-21T14:49:36.353Z,51.77
2023-09-21T14:52:03.823Z,52.45
2023-09-21T14:54:31.626Z,52.87
2023-09-21T14:57:00.681Z,53.02
2023-09-21T14:59:27.999Z,53.27
2023-09-21T15:01:56.483Z,53.82
2023-09-21T15:04:24.354Z,54.10
2023-09-21T15:06:52.381Z,54.34
2023-09-21T15:09:20.952Z,54.29
2023-09-21T15:11:48.362Z,54.17
2023-09-21T15:14:16.115Z,54.35
2023-09-21T15:16:43.493Z,54.28
2023-09-21T15:19:10.932Z,54.21
2023-09-21T15:21:38.623Z,54.10
2023-09-21T15:24:07.523Z,54.39
2023-09-21T15:26:35.025Z,54.40
2023-09-21T15:29:02.824Z,54.37
2023-09-21T15:31:30.954Z,54.19
2023-09-21T15:33:59.326Z,53.92
2023-09-21T15:36:27.039Z,54.11
2023-09-21T15:38:54.608Z,54.01
2023-09-21T15:41:21.956Z,53.54
2023-09-21T15:43:50.485Z,53.92
2023-09-21T15:46:17.997Z,53.84
2023-09-21T15:48:45.930Z,54.18
2023-09-21T15:51:13.729Z,54.46
2023-09-21T15:53:41.826Z,54.48
2023-09-21T15:56:09.596Z,54.41
2023-09-21T15:58:37.241Z,54.20
2023-09-21T16:01:04.840Z,54.29
2023-09-21T16:03:32.782Z,54.33
2023-09-21T16:06:00.934Z,54.53
2023-09-21T16:08:28.616Z,54.32
2023-09-21T16:10:57.279Z,54.22
2023-09-21T16:13:24.611Z,54.29
2023-09-21T16:15:52.174Z,54.21
2023-09-21T16:18:19.943Z,54.34
2023-09-21T16:20:47.561Z,54.12
2023-09-21T16:23:14.798Z,54.14
2023-09-21T16:25:42.416Z,54.27
2023-09-21T16:28:10.664Z,54.37
2023-09-21T16:30:38.073Z,54.12
2023-09-21T16:33:05.818Z,53.98
2023-09-21T16:35:35.452Z,54.07
2023-09-21T16:38:04.864Z,53.83
2023-09-21T16:40:32.219Z,53.78
2023-09-21T16:43:00.132Z,54.03
2023-09-21T16:45:28.017Z,54.34
2023-09-21T16:47:55.662Z,54.14
2023-09-21T16:50:22.995Z,54.09
2023-09-21T16:52:50.514Z,54.45
2023-09-21T16:55:18.432Z,54.46
2023-09-21T16:57:45.669Z,54.38
2023-09-21T17:00:16.984Z,54.16
2023-09-21T17:02:44.727Z,54.08
2023-09-21T17:05:12.510Z,54.17
2023-09-21T17:07:40.013Z,54.45
2023-09-21T17:10:08.282Z,54.31
2023-09-21T17:12:36.197Z,54.17
2023-09-21T17:15:04.070Z,53.97
2023-09-21T17:17:31.630Z,54.14
2023-09-21T17:19:58.972Z,53.66
2023-09-21T17:22:28.050Z,53.25
2023-09-21T17:24:55.593Z,53.13
2023-09-21T17:27:23.002Z,52.77
2023-09-21T17:29:50.695Z,52.99
2023-09-21T17:32:18.344Z,53.17
2023-09-21T17:34:45.852Z,53.25
2023-09-21T17:37:13.335Z,53.39
2023-09-21T17:39:40.641Z,53.26
2023-09-21T17:42:08.102Z,53.37
2023-09-21T17:44:35.601Z,53.86
2023-09-21T17:47:06.461Z,54.11
2023-09-21T17:49:34.015Z,54.54
2023-09-21T17:52:04.429Z,54.88
2023-09-21T17:54:31.878Z,54.95
2023-09-21T17:56:59.257Z,54.76
2023-09-21T17:59:26.507Z,55.26
2023-09-21T18:01:54.009Z,55.29
2023-09-21T18:04:21.736Z,55.21
2023-09-21T18:06:49.961Z,55.97
2023-09-21T18:09:19.790Z,55.81
2023-09-21T18:11:47.074Z,55.99
2023-09-21T18:14:14.438Z,55.68
2023-09-21T18:16:42.851Z,56.10
2023-09-21T18:19:10.223Z,56.22
2023-09-21T18:21:38.321Z,56.70
2023-09-21T18:24:06.453Z,57.15
2023-09-21T18:26:33.793Z,57.12
2023-09-21T18:29:02.623Z,57.19
2023-09-21T18:31:30.165Z,57.20
2023-09-21T18:33:59.953Z,57.46
2023-09-21T18:36:27.339Z,57.84
2023-09-21T18:38:54.947Z,57.70
2023-09-21T18:41:22.217Z,57.86
2023-09-21T18:43:49.496Z,57.77
2023-09-21T18:46:18.004Z,57.96
2023-09-21T18:48:45.510Z,58.07
2023-09-21T18:51:16.061Z,58.31
2023-09-21T18:53:43.369Z,58.79
2023-09-21T18:56:10.671Z,59.17
2023-09-21T18:58:38.012Z,59.30
2023-09-21T19:01:05.340Z,59.49
2023-09-21T19:03:32.829Z,59.51
2023-09-21T19:06:00.316Z,59.64
2023-09-21T19:08:28.159Z,59.78
2023-09-21T19:10:55.430Z,60.07
2023-09-21T19:13:23.027Z,60.13
2023-09-21T19:15:50.714Z,60.12
2023-09-21T19:18:19.028Z,60.58
2023-09-21T19:20:47.061Z,60.53
2023-09-21T19:23:15.043Z,60.86
2023-09-21T19:25:42.303Z,60.89
2023-09-21T19:28:09.628Z,61.01
2023-09-21T19:30:37.685Z,61.22
2023-09-21T19:33:07.132Z,61.32
2023-09-21T19:35:34.829Z,61.34
2023-09-21T19:38:02.215Z,61.40
2023-09-21T19:40:29.931Z,61.62
2023-09-21T19:42:57.453Z,61.75
2023-09-21T19:45:25.182Z,61.81
2023-09-21T19:47:52.932Z,61.86
2023-09-21T19:50:20.654Z,61.89
2023-09-21T19:52:47.947Z,61.94
2023-09-21T19:55:15.327Z,62.17
2023-09-21T19:57:46.390Z,62.19
2023-09-21T20:00:17.566Z,62.25
2023-09-21T20:02:45.582Z,62.60
2023-09-21T20:05:13.260Z,62.60
2023-09-21T20:07:40.758Z,62.55
2023-09-21T20:10:08.839Z,62.98
2023-09-21T20:12:37.441Z,62.96
2023-09-21T20:15:05.408Z,63.16
2023-09-21T20:17:33.190Z,63.05
2023-09-21T20:20:01.089Z,63.39
2023-09-21T20:22:28.707Z,63.43
2023-09-21T20:24:56.186Z,63.54
2023-09-21T20:27:23.752Z,63.65
2023-09-21T20:29:51.716Z,63.50
2023-09-21T20:32:19.052Z,63.52
2023-09-21T20:34:46.375Z,63.14
2023-09-21T20:37:21.222Z,63.38
2023-09-21T20:39:49.198Z,63.41
2023-09-21T20:42:17.506Z,63.30
2023-09-21T20:44:45.538Z,63.23
2023-09-21T20:47:13.068Z,63.61
2023-09-21T20:49:40.422Z,63.88
2023-09-21T20:52:07.832Z,63.57
2023-09-21T20:54:35.105Z,63.69
2023-09-21T20:57:03.459Z,63.70
2023-09-21T20:59:31.089Z,63.80
2023-09-21T21:01:58.863Z,63.79
2023-09-21T21:04:26.332Z,63.73
2023-09-21T21:06:54.484Z,63.93
2023-09-21T21:09:21.754Z,64.24
2023-09-21T21:11:49.041Z,64.65
2023-09-21T21:14:16.673Z,64.82
2023-09-21T21:16:43.972Z,64.97
2023-09-21T21:19:11.350Z,65.15
2023-09-21T21:21:38.827Z,65.39
2023-09-21T21:24:06.338Z,65.61
2023-09-21T21:26:33.731Z,65.58
2023-09-21T21:29:01.101Z,65.84
2023-09-21T21:31:28.838Z,65.92
2023-09-21T21:33:56.227Z,66.35
2023-09-21T21:36:23.587Z,66.57
2023-09-21T21:38:51.054Z,66.73
2023-09-21T21:41:21.220Z,66.87
2023-09-21T21:43:48.548Z,67.07
2023-09-21T21:46:15.921Z,67.15
2023-09-21T21:48:43.733Z,67.20
2023-09-21T21:51:11.242Z,67.35
2023-09-21T21:53:38.507Z,67.60
2023-09-21T21:56:05.901Z,67.46
2023-09-21T21:58:33.473Z,67.65
2023-09-21T22:01:00.752Z,67.61
2023-09-21T22:03:28.393Z,67.94
2023-09-21T22:05:55.775Z,68.12
2023-09-21T22:08:23.005Z,67.93
2023-09-21T22:10:50.224Z,68.00
2023-09-21T22:13:17.876Z,68.13
2023-09-21T22:15:45.404Z,68.15
2023-09-21T22:18:14.622Z,68.23
2023-09-21T22:20:42.143Z,68.50
2023-09-21T22:23:09.810Z,68.53
2023-09-21T22:25:37.199Z,68.79
2023-09-21T22:28:05.174Z,68.92
2023-09-21T22:30:32.560Z,68.97
2023-09-21T22:33:00.086Z,69.57
2023-09-21T22:35:29.946Z,69.73
2023-09-21T22:38:08.361Z,69.96
2023-09-21T22:40:41.247Z,70.07
2023-09-21T22:43:10.547Z,70.35
2023-09-21T22:45:41.664Z,70.39
2023-09-21T22:48:09.503Z,70.58
2023-09-21T22:50:36.981Z,70.59
2023-09-21T22:53:04.573Z,70.75
2023-09-21T22:55:31.988Z,71.05
2023-09-21T22:57:59.421Z,70.75
2023-09-21T23:00:26.651Z,70.96
2023-09-21T23:02:54.646Z,71.31
2023-09-21T23:05:23.589Z,71.48
2023-09-21T23:07:50.920Z,71.67
2023-09-21T23:10:18.191Z,71.66
2023-09-21T23:12:45.881Z,72.03
2023-09-21T23:15:14.627Z,71.98
2023-09-21T23:17:42.815Z,72.08
2023-09-21T23:20:15.531Z,72.50
2023-09-21T23:22:46.702Z,72.23
2023-09-21T23:25:21.438Z,72.14
2023-09-21T23:27:48.749Z,73.08
2023-09-21T23:30:18.341Z,72.57
2023-09-21T23:32:47.424Z,72.54
2023-09-21T23:35:15.610Z,72.68
2023-09-21T23:37:43.341Z,72.93
2023-09-21T23:40:12.895Z,72.88
2023-09-21T23:42:42.000Z,73.21
2023-09-21T23:45:15.095Z,73.07
2023-09-21T23:47:43.257Z,73.12
2023-09-21T23:50:13.568Z,73.33
2023-09-21T23:52:49.528Z,73.50
2023-09-21T23:55:17.436Z,73.83
2023-09-21T23:57:45.057Z,74.13
